Terminal Aerodrome Forecast
Issued by NWS

Home | Current Version | Previous Version | Text Only | Print | Product List | Glossary On
Versions: 1 2 3 4 5 6 7 8 9 10 11 12 13 14 15 16 17 18 19 20 21 22 23 24 25
140
FTUS41 KCAR 262337
TAFFVE
TAF
KFVE 262337Z 2700/2724 14004KT 1/4SM -RA OVC003
     FM270200 14004KT 1/4SM FG OVC003
     FM270600 14005KT 1/4SM FG OVC001
     FM271200 07006KT 1SM BR OVC003
     FM271600 12004KT 2SM BR OVC007
     FM272000 10006KT 4SM BR OVC006=

USA.gov is the U.S. government's official web portal to all federal, state and local government web resources and services.